Time;durP1;ratioP1;P1;durP2;ratioP2;P2;SDS_P1;SDS_P2;PMS_P1;PMS_P2;Temp;Humidity;BMP_temperature;BMP_pressure;BME280_temperature;BME280_humidity;BME280_pressure;Samples;Min_cycle;Max_cycle;Signal;HPM_P1;HPM_P2
2022/08/18 00:00:44;;;;;;;4.65;2.35;;;;;;;-144.43;100.00;67396.00;5075301;28;20036;-61
2022/08/18 00:04:10;;;;;;;5.57;1.77;;;;;;;-144.43;100.00;67396.00;5076484;28;20135;-60
2022/08/18 00:07:36;;;;;;;4.25;2.00;;;;;;;-144.43;100.00;67396.00;5091998;28;20040;-61
2022/08/18 00:11:02;;;;;;;5.20;1.77;;;;;;;-144.43;100.00;67396.00;5094837;28;20032;-61
2022/08/18 00:14:28;;;;;;;5.13;1.80;;;;;;;-144.43;100.00;67396.00;5086356;28;20036;-61
2022/08/18 00:17:53;;;;;;;5.03;1.73;;;;;;;-144.43;100.00;67396.00;5095140;28;20032;-61
2022/08/18 00:21:20;;;;;;;8.48;1.98;;;;;;;-144.43;100.00;67396.00;5095635;28;20130;-60
2022/08/18 00:24:47;;;;;;;6.82;1.77;;;;;;;-144.43;100.00;67396.00;5078538;28;20028;-62
2022/08/18 00:28:13;;;;;;;5.68;1.48;;;;;;;-144.43;100.00;67396.00;5095239;28;20092;-62
2022/08/18 00:31:38;;;;;;;7.00;1.58;;;;;;;-144.43;100.00;67396.00;5095015;28;20036;-60
2022/08/18 00:35:08;;;;;;;9.48;1.70;;;;;;;-144.43;100.00;67396.00;5094896;28;20395;-61
2022/08/18 00:38:33;;;;;;;5.88;1.80;;;;;;;-144.43;100.00;67396.00;5078169;28;20033;-61
2022/08/18 00:42:10;;;;;;;13.07;2.25;;;;;;;-144.43;100.00;67396.00;5080488;28;20517;-62
2022/08/18 00:45:38;;;;;;;9.02;1.92;;;;;;;-144.43;100.00;67396.00;5094558;28;20077;-61
2022/08/18 00:49:07;;;;;;;6.38;1.88;;;;;;;-144.43;100.00;67396.00;5087432;28;20394;-61
2022/08/18 00:52:37;;;;;;;6.63;1.90;;;;;;;-144.43;100.00;67396.00;5091086;28;20051;-61
2022/08/18 00:56:07;;;;;;;10.77;2.20;;;;;;;-144.43;100.00;67396.00;5088726;28;20420;-61
2022/08/18 00:59:44;;;;;;;8.55;2.45;;;;;;;-144.43;100.00;67396.00;5094810;28;20028;-61
2022/08/18 01:03:19;;;;;;;6.25;1.95;;;;;;;-144.43;100.00;67396.00;5094335;28;20115;-61
2022/08/18 01:06:56;;;;;;;18.73;2.10;;;;;;;-144.43;100.00;67396.00;5080752;28;20525;-61
2022/08/18 01:10:22;;;;;;;10.00;1.83;;;;;;;-144.43;100.00;67396.00;5077663;28;20037;-61
2022/08/18 01:13:49;;;;;;;10.98;1.73;;;;;;;-144.43;100.00;67396.00;5084985;28;20098;-61
2022/08/18 01:28:40;;;;;;;9.55;1.73;;;;;;;-144.43;100.00;67396.00;5091600;28;20032;-61
2022/08/18 01:32:07;;;;;;;11.48;2.00;;;;;;;-144.43;100.00;67396.00;5087947;28;20071;-60
2022/08/18 01:35:34;;;;;;;8.55;1.70;;;;;;;-144.43;100.00;67396.00;5093797;28;20044;-59
2022/08/18 01:38:59;;;;;;;11.02;1.92;;;;;;;-144.43;100.00;67396.00;5095988;28;20375;-59
2022/08/18 01:42:24;;;;;;;12.80;1.98;;;;;;;-144.43;100.00;67396.00;5080032;28;20445;-60
2022/08/18 01:45:50;;;;;;;5.90;1.48;;;;;;;-144.43;100.00;67396.00;5089804;28;20028;-59
2022/08/18 01:49:18;;;;;;;10.45;2.00;;;;;;;-144.43;100.00;67396.00;5093311;28;20036;-60
2022/08/18 01:52:44;;;;;;;10.10;1.60;;;;;;;-144.43;100.00;67396.00;5094790;28;20486;-60
2022/08/18 01:56:16;;;;;;;9.48;2.13;;;;;;;-144.43;100.00;67396.00;5098209;28;20036;-60
2022/08/18 01:59:44;;;;;;;12.57;2.08;;;;;;;-144.43;100.00;67396.00;5081848;28;20094;-61
2022/08/18 02:03:14;;;;;;;48.22;3.42;;;;;;;-144.43;100.00;67396.00;5092640;28;20044;-62
2022/08/18 02:06:46;;;;;;;10.48;2.35;;;;;;;-144.43;100.00;67396.00;5084549;28;20024;-61
2022/08/18 02:10:12;;;;;;;9.32;2.50;;;;;;;-144.43;100.00;67396.00;5088540;28;20055;-62
2022/08/18 02:13:39;;;;;;;6.07;1.80;;;;;;;-144.43;100.00;67396.00;5090394;28;20036;-60
2022/08/18 02:17:06;;;;;;;11.45;2.22;;;;;;;-144.43;100.00;67396.00;5078483;28;20043;-61
2022/08/18 02:20:39;;;;;;;16.63;2.70;;;;;;;-144.43;100.00;67396.00;5091468;28;20093;-61
2022/08/18 02:24:05;;;;;;;7.82;1.90;;;;;;;-144.43;100.00;67396.00;5075881;28;20040;-63
2022/08/18 02:27:31;;;;;;;18.30;2.60;;;;;;;-144.43;100.00;67396.00;5090918;28;20031;-61
2022/08/18 02:31:04;;;;;;;10.38;1.98;;;;;;;-144.43;100.00;67396.00;5088904;28;20089;-62
2022/08/18 02:34:30;;;;;;;8.20;1.80;;;;;;;-144.43;100.00;67396.00;5089808;28;20089;-60
2022/08/18 02:38:01;;;;;;;12.05;1.95;;;;;;;-144.43;100.00;67396.00;5094109;28;20047;-60
2022/08/18 02:41:27;;;;;;;7.15;1.60;;;;;;;-144.43;100.00;67396.00;5100581;28;20064;-61
2022/08/18 02:44:53;;;;;;;9.32;1.90;;;;;;;-144.43;100.00;67396.00;5100741;28;20042;-61
2022/08/18 02:48:35;;;;;;;7.55;1.75;;;;;;;-144.43;100.00;67396.00;5090284;28;20118;-61
2022/08/18 02:52:00;;;;;;;6.63;1.65;;;;;;;-144.43;100.00;67396.00;5090758;28;20045;-62
2022/08/18 02:55:28;;;;;;;;;;;;;;;-144.43;100.00;67396.00;5091942;28;20032;-62
2022/08/18 02:58:54;;;;;;;13.73;1.95;;;;;;;-144.43;100.00;67396.00;5090515;28;19916;-60
2022/08/18 03:02:20;;;;;;;11.25;1.50;;;;;;;-144.43;100.00;67396.00;5091851;28;20453;-62
2022/08/18 03:05:46;;;;;;;9.48;2.00;;;;;;;-144.43;100.00;67396.00;5092432;28;20023;-61
2022/08/18 03:09:12;;;;;;;;;;;;;;;-144.43;100.00;67396.00;5094854;28;20035;-61
2022/08/18 03:12:37;;;;;;;14.10;2.30;;;;;;;-144.43;100.00;67396.00;5098832;28;19916;-60
2022/08/18 03:16:03;;;;;;;11.80;2.10;;;;;;;-144.43;100.00;67396.00;5101439;28;20043;-60
2022/08/18 03:19:29;;;;;;;11.32;2.00;;;;;;;-144.43;100.00;67396.00;5090445;28;20028;-60
2022/08/18 03:22:57;;;;;;;9.43;2.22;;;;;;;-144.43;100.00;67396.00;5096738;28;20039;-60
2022/08/18 03:26:23;;;;;;;10.15;1.83;;;;;;;-144.43;100.00;67396.00;5091300;28;20478;-60
2022/08/18 03:29:50;;;;;;;10.43;2.05;;;;;;;-144.43;100.00;67396.00;5093323;28;20040;-59
2022/08/18 03:33:15;;;;;;;7.88;1.95;;;;;;;-144.43;100.00;67396.00;5096018;28;20561;-60
2022/08/18 03:36:41;;;;;;;7.85;1.77;;;;;;;-144.43;100.00;67396.00;5090067;28;20386;-60
2022/08/18 03:40:09;;;;;;;9.35;2.10;;;;;;;-144.43;100.00;67396.00;5090990;28;20040;-59
2022/08/18 03:43:35;;;;;;;9.93;2.03;;;;;;;-144.43;100.00;67396.00;5096807;28;20494;-60
2022/08/18 03:47:02;;;;;;;9.10;2.10;;;;;;;-144.43;100.00;67396.00;5093201;28;20043;-61
2022/08/18 03:50:28;;;;;;;12.90;2.20;;;;;;;-144.43;100.00;67396.00;5093957;28;20069;-62
2022/08/18 03:53:55;;;;;;;9.88;2.00;;;;;;;-144.43;100.00;67396.00;5093114;28;20036;-62
2022/08/18 03:57:22;;;;;;;9.60;2.13;;;;;;;-144.43;100.00;67396.00;5093141;28;20109;-62
2022/08/18 04:00:47;;;;;;;8.82;2.10;;;;;;;-144.43;100.00;67396.00;5095009;28;20532;-61
2022/08/18 04:04:15;;;;;;;8.18;1.73;;;;;;;-144.43;100.00;67396.00;5094552;28;20127;-62
2022/08/18 04:07:42;;;;;;;7.30;2.17;;;;;;;-144.43;100.00;67396.00;5094193;28;20068;-62
2022/08/18 04:11:08;;;;;;;8.20;2.00;;;;;;;-144.43;100.00;67396.00;5095043;28;20398;-62
2022/08/18 04:14:33;;;;;;;7.50;2.15;;;;;;;-144.43;100.00;67396.00;5093911;28;20035;-62
2022/08/18 04:18:00;;;;;;;15.23;2.65;;;;;;;-144.43;100.00;67396.00;5104111;28;20032;-61
2022/08/18 04:21:25;;;;;;;19.83;2.63;;;;;;;-144.43;100.00;67396.00;5102838;28;20036;-62
2022/08/18 04:24:51;;;;;;;12.45;2.42;;;;;;;-144.43;100.00;67396.00;5093813;28;20032;-62
2022/08/18 04:28:17;;;;;;;13.38;2.65;;;;;;;-144.43;100.00;67396.00;5093197;28;20073;-63
2022/08/18 04:31:43;;;;;;;14.18;2.42;;;;;;;-144.43;100.00;67396.00;5092797;28;20487;-63
2022/08/18 04:35:08;;;;;;;11.32;2.60;;;;;;;-144.43;100.00;67396.00;5091711;28;20059;-64
2022/08/18 04:38:35;;;;;;;11.73;2.70;;;;;;;-144.43;100.00;67396.00;5094545;28;20043;-62
2022/08/18 04:42:02;;;;;;;12.82;3.08;;;;;;;-144.43;100.00;67396.00;5091711;28;20028;-63
2022/08/18 04:45:28;;;;;;;9.07;2.55;;;;;;;-144.43;100.00;67396.00;5091838;28;20080;-62
2022/08/18 04:49:00;;;;;;;7.95;2.60;;;;;;;-144.43;100.00;67396.00;5094046;28;20067;-62
2022/08/18 04:56:26;;;;;;;11.63;2.70;;;;;;;-144.43;100.00;67396.00;5093134;28;20123;-61
2022/08/18 05:00:12;;;;;;;8.52;2.55;;;;;;;-144.43;100.00;67396.00;5096155;28;20077;-60
2022/08/18 05:03:37;;;;;;;12.63;2.65;;;;;;;-144.43;100.00;67396.00;5092432;28;20040;-63
2022/08/18 05:07:07;;;;;;;;;;;;;;;-144.43;100.00;67396.00;5093548;28;20039;-63
2022/08/18 05:10:33;;;;;;;11.05;3.05;;;;;;;-144.43;100.00;67396.00;5080978;28;20016;-60
2022/08/18 05:13:59;;;;;;;22.08;3.58;;;;;;;-144.43;100.00;67396.00;5088204;28;20119;-61
2022/08/18 05:17:27;;;;;;;8.63;2.80;;;;;;;-144.43;100.00;67396.00;5094526;28;20115;-61
2022/08/18 05:20:54;;;;;;;13.18;3.03;;;;;;;-144.43;100.00;67396.00;5093255;28;20039;-62
2022/08/18 05:24:20;;;;;;;12.82;3.10;;;;;;;-144.43;100.00;67396.00;5093038;28;20061;-61
2022/08/18 05:27:46;;;;;;;10.65;3.00;;;;;;;-144.43;100.00;67396.00;5093163;28;20063;-61
2022/08/18 05:31:12;;;;;;;;;;;;;;;-144.43;100.00;67396.00;5093750;28;20050;-62
2022/08/18 05:34:39;;;;;;;12.90;3.05;;;;;;;-144.43;100.00;67396.00;5092286;28;19916;-62
2022/08/18 05:38:03;;;;;;;;;;;;;;;-144.43;100.00;67396.00;5088585;28;20036;-62
2022/08/18 05:41:31;;;;;;;12.68;3.35;;;;;;;-144.43;100.00;67396.00;5087606;28;20275;-61
2022/08/18 05:44:56;;;;;;;16.20;2.75;;;;;;;-144.43;100.00;67396.00;5092493;28;20036;-63
2022/08/18 05:48:24;;;;;;;15.25;3.22;;;;;;;-144.43;100.00;67396.00;5093065;28;20308;-60
2022/08/18 05:52:01;;;;;;;12.90;3.15;;;;;;;-144.43;100.00;67396.00;5092906;28;20036;-60
2022/08/18 05:59:44;;;;;;;;;;;;;;;-144.43;100.00;67396.00;5078307;28;20084;-63
2022/08/18 06:03:36;;;;;;;12.30;3.53;;;;;;;-144.43;100.00;67396.00;5088825;28;20266;-63
2022/08/18 06:07:08;;;;;;;8.45;3.17;;;;;;;-144.43;100.00;67396.00;5091418;28;20029;-60
2022/08/18 06:10:47;;;;;;;10.32;3.08;;;;;;;-144.43;100.00;67396.00;5090872;28;20145;-63
2022/08/18 06:14:13;;;;;;;9.27;3.05;;;;;;;-144.43;100.00;67396.00;5092602;28;20360;-62
2022/08/18 06:18:00;;;;;;;15.10;3.22;;;;;;;-144.43;100.00;67396.00;5092799;28;20024;-62
2022/08/18 06:21:28;;;;;;;8.52;2.92;;;;;;;-144.43;100.00;67396.00;5090442;28;20101;-61
2022/08/18 06:25:15;;;;;;;11.15;3.22;;;;;;;-144.43;100.00;67396.00;5092211;28;20039;-61
2022/08/18 06:29:01;;;;;;;;;;;;;;;-144.43;100.00;67396.00;5093547;28;20028;-61
2022/08/18 06:32:55;;;;;;;9.45;3.20;;;;;;;-144.43;100.00;67396.00;5090571;28;20405;-60
2022/08/18 06:36:20;;;;;;;10.68;3.63;;;;;;;-144.43;100.00;67396.00;5092133;28;20074;-61
2022/08/18 06:40:01;;;;;;;13.98;3.67;;;;;;;-144.43;100.00;67396.00;5092047;28;20036;-59
2022/08/18 06:43:27;;;;;;;8.18;3.25;;;;;;;-144.43;100.00;67396.00;5093213;28;20051;-60
2022/08/18 06:46:55;;;;;;;12.68;3.47;;;;;;;-144.43;100.00;67396.00;5090685;28;20032;-60
2022/08/18 06:50:27;;;;;;;10.13;3.28;;;;;;;-144.43;100.00;67396.00;5091104;28;20070;-59
2022/08/18 06:54:03;;;;;;;9.50;3.45;;;;;;;-144.43;100.00;67396.00;5089466;28;20482;-59
2022/08/18 06:57:39;;;;;;;10.35;3.55;;;;;;;-144.43;100.00;67396.00;5092129;28;20036;-59
2022/08/18 07:01:23;;;;;;;11.23;3.83;;;;;;;-144.43;100.00;67396.00;5091780;28;20414;-59
2022/08/18 07:05:14;;;;;;;11.82;3.80;;;;;;;-144.43;100.00;67396.00;5091543;28;20494;-60
2022/08/18 07:08:41;;;;;;;11.70;3.47;;;;;;;-144.43;100.00;67396.00;5090657;28;20032;-59
2022/08/18 07:12:20;;;;;;;10.82;3.47;;;;;;;-144.43;100.00;67396.00;5091724;28;20410;-60
2022/08/18 07:15:49;;;;;;;10.63;3.50;;;;;;;-144.43;100.00;67396.00;5091476;28;20032;-59
2022/08/18 07:19:20;;;;;;;13.40;3.38;;;;;;;-144.43;100.00;67396.00;5098842;28;20066;-60
2022/08/18 07:23:04;;;;;;;12.05;3.75;;;;;;;-144.43;100.00;67396.00;5098364;28;20036;-59
2022/08/18 07:26:54;;;;;;;13.98;3.90;;;;;;;-144.43;100.00;67396.00;5094070;28;20077;-59
2022/08/18 07:30:19;;;;;;;13.73;3.55;;;;;;;-144.43;100.00;67396.00;5087168;28;20037;-60
2022/08/18 07:34:03;;;;;;;12.00;3.37;;;;;;;-144.43;100.00;67396.00;5098474;28;20028;-60
2022/08/18 07:37:36;;;;;;;14.32;3.53;;;;;;;-144.43;100.00;67396.00;5095739;28;20265;-60
2022/08/18 07:41:04;;;;;;;10.77;3.67;;;;;;;-144.43;100.00;67396.00;5098463;28;20035;-60
2022/08/18 07:44:45;;;;;;;8.82;3.17;;;;;;;-144.43;100.00;67396.00;5098645;28;20047;-60
2022/08/18 07:48:33;;;;;;;14.30;3.25;;;;;;;-144.43;100.00;67396.00;5093663;28;20036;-60
2022/08/18 07:52:31;;;;;;;12.88;3.70;;;;;;;-144.43;100.00;67396.00;5098644;28;20040;-60
2022/08/18 07:56:04;;;;;;;14.60;3.75;;;;;;;-144.43;100.00;67396.00;5083499;28;20071;-60
2022/08/18 07:59:42;;;;;;;11.98;3.58;;;;;;;-144.43;100.00;67396.00;5094736;28;20056;-60
2022/08/18 08:03:32;;;;;;;9.85;3.10;;;;;;;-144.43;100.00;67396.00;5097325;28;20416;-60
2022/08/18 08:07:13;;;;;;;10.88;3.10;;;;;;;-144.43;100.00;67396.00;5097278;28;20051;-60
2022/08/18 08:10:57;;;;;;;14.45;3.42;;;;;;;-144.43;100.00;67396.00;5096282;28;20036;-60
2022/08/18 08:14:46;;;;;;;9.52;3.50;;;;;;;-144.43;100.00;67396.00;5096697;28;20036;-60
2022/08/18 08:18:34;;;;;;;8.95;3.05;;;;;;;-144.43;100.00;67396.00;5095027;28;20036;-60
2022/08/18 08:22:32;;;;;;;12.63;3.25;;;;;;;-144.43;100.00;67396.00;5098115;28;20036;-59
2022/08/18 08:26:10;;;;;;;6.50;2.72;;;;;;;-144.43;100.00;67396.00;5077272;27;20105;-60
2022/08/18 08:29:44;;;;;;;12.52;3.35;;;;;;;-144.43;100.00;67396.00;5092282;28;20024;-60
2022/08/18 08:33:22;;;;;;;17.08;3.25;;;;;;;-144.43;100.00;67396.00;5094455;28;20028;-60
2022/08/18 08:37:02;;;;;;;11.57;3.42;;;;;;;-144.43;100.00;67396.00;5094038;28;20043;-60
2022/08/18 08:41:02;;;;;;;13.88;3.55;;;;;;;-144.43;100.00;67396.00;5094417;28;20024;-59
2022/08/18 08:44:40;;;;;;;13.18;3.47;;;;;;;-144.43;100.00;67396.00;5079866;28;20474;-59
2022/08/18 08:48:11;;;;;;;10.85;3.17;;;;;;;-144.43;100.00;67396.00;5093581;28;20044;-60
2022/08/18 08:51:55;;;;;;;10.13;3.55;;;;;;;-144.43;100.00;67396.00;5094654;28;20086;-60
2022/08/18 08:55:40;;;;;;;10.98;3.40;;;;;;;-144.43;100.00;67396.00;5094521;28;20116;-59
2022/08/18 08:59:08;;;;;;;9.23;3.25;;;;;;;-144.43;100.00;67396.00;5078290;28;20036;-59
2022/08/18 09:03:10;;;;;;;13.40;3.53;;;;;;;-144.43;100.00;67396.00;5094922;28;20508;-60
2022/08/18 09:06:57;;;;;;;12.38;3.60;;;;;;;-144.43;100.00;67396.00;5090564;28;20032;-60
2022/08/18 09:10:43;;;;;;;9.23;3.40;;;;;;;-144.43;100.00;67396.00;5079957;28;20040;-58
2022/08/18 09:14:30;;;;;;;11.60;3.45;;;;;;;-144.43;100.00;67396.00;5086351;28;20039;-61
2022/08/18 09:18:15;;;;;;;;;;;;;;;-144.43;100.00;67396.00;5084143;28;20028;-58
2022/08/18 09:22:13;;;;;;;11.90;3.55;;;;;;;-144.43;100.00;67396.00;5086062;28;19989;-58
2022/08/18 09:25:46;;;;;;;12.20;3.65;;;;;;;-144.43;100.00;67396.00;5093814;28;20047;-59
2022/08/18 09:29:23;;;;;;;10.63;3.20;;;;;;;-144.43;100.00;67396.00;5089575;28;20025;-59
2022/08/18 09:33:13;;;;;;;12.63;3.50;;;;;;;-144.43;100.00;67396.00;5091652;28;20471;-61
2022/08/18 09:37:01;;;;;;;14.25;3.53;;;;;;;-144.43;100.00;67396.00;5093205;28;20036;-60
2022/08/18 09:44:47;;;;;;;9.38;3.42;;;;;;;-144.43;100.00;67396.00;5093791;28;20068;-59
2022/08/18 09:48:28;;;;;;;11.45;3.22;;;;;;;-144.43;100.00;67396.00;5080142;28;20110;-59
2022/08/18 09:51:56;;;;;;;10.85;3.90;;;;;;;-144.43;100.00;67396.00;5093508;28;20400;-58
2022/08/18 09:55:23;;;;;;;17.50;4.30;;;;;;;-144.43;100.00;67396.00;5092530;28;20036;-60
2022/08/18 09:59:06;;;;;;;17.23;4.30;;;;;;;-144.43;100.00;67396.00;5090609;28;20073;-59
2022/08/18 10:02:37;;;;;;;11.10;3.95;;;;;;;-144.43;100.00;67396.00;5087472;28;20040;-59
2022/08/18 10:06:26;;;;;;;13.05;3.63;;;;;;;-144.43;100.00;67396.00;5092720;28;20420;-60
2022/08/18 10:09:59;;;;;;;14.15;3.78;;;;;;;-144.43;100.00;67396.00;5082664;28;20039;-59
2022/08/18 10:13:34;;;;;;;15.55;4.10;;;;;;;-144.43;100.00;67396.00;5087102;28;20063;-59
2022/08/18 10:17:02;;;;;;;12.07;3.92;;;;;;;-144.43;100.00;67396.00;5089527;28;20444;-60
2022/08/18 10:21:03;;;;;;;14.60;4.10;;;;;;;-144.43;100.00;67396.00;5087883;28;20272;-61
2022/08/18 10:24:44;;;;;;;15.15;4.38;;;;;;;-144.43;100.00;67396.00;5087748;28;20050;-60
2022/08/18 10:28:49;;;;;;;15.40;4.38;;;;;;;-144.43;100.00;67396.00;5085115;28;20417;-59
2022/08/18 10:32:15;;;;;;;14.35;4.20;;;;;;;-144.43;100.00;67396.00;5092953;28;20115;-60
2022/08/18 10:35:56;;;;;;;15.90;3.88;;;;;;;-144.43;100.00;67396.00;5092861;28;20119;-59
2022/08/18 10:39:30;;;;;;;12.82;3.90;;;;;;;-144.43;100.00;67396.00;5092899;28;20039;-60
2022/08/18 10:43:09;;;;;;;13.80;4.40;;;;;;;-144.43;100.00;67396.00;5076207;28;20040;-60
2022/08/18 10:46:45;;;;;;;14.38;4.30;;;;;;;-144.43;100.00;67396.00;5079270;28;20052;-59
2022/08/18 10:50:22;;;;;;;14.93;4.38;;;;;;;-144.43;100.00;67396.00;5085001;28;20036;-60
2022/08/18 10:53:57;;;;;;;16.08;5.10;;;;;;;-144.43;100.00;67396.00;5083390;28;20032;-60
2022/08/18 10:57:50;;;;;;;20.77;4.88;;;;;;;-144.43;100.00;67396.00;5086930;28;20032;-60
2022/08/18 11:01:28;;;;;;;15.20;4.88;;;;;;;-144.43;100.00;67396.00;5092566;28;20081;-60
2022/08/18 11:05:09;;;;;;;15.98;4.85;;;;;;;-144.43;100.00;67396.00;5075263;28;20113;-59
2022/08/18 11:08:37;;;;;;;14.05;4.72;;;;;;;-144.43;100.00;67396.00;5092548;28;20075;-58
2022/08/18 11:12:07;;;;;;;16.88;4.80;;;;;;;-144.43;100.00;67396.00;5092424;28;20363;-59
2022/08/18 11:15:47;;;;;;;15.60;4.88;;;;;;;-144.43;100.00;67396.00;5103769;28;20059;-60
2022/08/18 11:19:14;;;;;;;16.25;4.97;;;;;;;-144.43;100.00;67396.00;5076881;28;20028;-59
2022/08/18 11:22:50;;;;;;;14.88;4.68;;;;;;;-144.43;100.00;67396.00;5092313;28;20040;-58
2022/08/18 11:26:22;;;;;;;15.00;4.93;;;;;;;-144.43;100.00;67396.00;5085781;28;20043;-60
2022/08/18 11:29:48;;;;;;;15.05;4.90;;;;;;;-144.43;100.00;67396.00;5082600;28;20037;-60
2022/08/18 11:33:29;;;;;;;14.10;4.83;;;;;;;-144.43;100.00;67396.00;5092255;28;20032;-60
2022/08/18 11:36:59;;;;;;;16.75;5.25;;;;;;;-144.43;100.00;67396.00;5075520;28;20312;-59
2022/08/18 11:40:30;;;;;;;18.27;5.07;;;;;;;-144.43;100.00;67396.00;5076446;28;20032;-60
2022/08/18 11:44:13;;;;;;;18.70;5.20;;;;;;;-144.43;100.00;67396.00;5092754;28;20385;-59
2022/08/18 11:47:57;;;;;;;15.25;4.80;;;;;;;-144.43;100.00;67396.00;5084269;28;20040;-60
2022/08/18 11:51:30;;;;;;;13.27;4.47;;;;;;;-144.43;100.00;67396.00;5077742;28;20043;-60
2022/08/18 11:54:59;;;;;;;18.08;5.30;;;;;;;-144.43;100.00;67396.00;5091710;28;20055;-59
2022/08/18 11:58:37;;;;;;;15.65;5.20;;;;;;;-144.43;100.00;67396.00;5092071;28;20059;-60
2022/08/18 12:02:04;;;;;;;17.45;5.60;;;;;;;-144.43;100.00;67396.00;5092101;28;20035;-59
2022/08/18 12:05:39;;;;;;;13.40;5.80;;;;;;;-144.43;100.00;67396.00;5094487;28;20032;-60
2022/08/18 12:09:17;;;;;;;15.93;6.43;;;;;;;-144.43;100.00;67396.00;5079060;28;20390;-58
2022/08/18 12:12:52;;;;;;;27.77;7.45;;;;;;;-144.43;100.00;67396.00;5095194;28;20036;-59
2022/08/18 12:16:31;;;;;;;17.33;6.60;;;;;;;-144.43;100.00;67396.00;5088938;28;20032;-60
2022/08/18 12:19:58;;;;;;;15.18;6.75;;;;;;;-144.43;100.00;67396.00;5095174;28;20394;-60
2022/08/18 12:23:25;;;;;;;18.77;7.20;;;;;;;-144.43;100.00;67396.00;5095558;28;20569;-60
2022/08/18 12:26:51;;;;;;;21.50;6.93;;;;;;;-144.43;100.00;67396.00;5093174;28;20481;-60
2022/08/18 12:30:17;;;;;;;18.73;6.65;;;;;;;-144.43;100.00;67396.00;5081553;28;20029;-60
2022/08/18 12:33:42;;;;;;;;;;;;;;;-144.43;100.00;67396.00;5092813;28;20457;-60
2022/08/18 12:37:09;;;;;;;18.35;6.68;;;;;;;-144.43;100.00;67396.00;5095226;28;20019;-60
2022/08/18 12:40:34;;;;;;;20.95;7.15;;;;;;;-144.43;100.00;67396.00;5094628;28;20036;-61
2022/08/18 12:44:00;;;;;;;24.23;7.57;;;;;;;-144.43;100.00;67396.00;5089952;28;20036;-61
2022/08/18 12:47:26;;;;;;;18.75;7.10;;;;;;;-144.43;100.00;67396.00;5094535;28;20040;-61
2022/08/18 12:50:51;;;;;;;18.38;6.90;;;;;;;-144.43;100.00;67396.00;5091979;28;20486;-60
2022/08/18 12:54:17;;;;;;;16.98;6.30;;;;;;;-144.43;100.00;67396.00;5092764;28;20024;-60
2022/08/18 12:57:44;;;;;;;21.38;6.90;;;;;;;-144.43;100.00;67396.00;5093601;28;20114;-61
2022/08/18 13:01:09;;;;;;;18.42;5.90;;;;;;;-144.43;100.00;67396.00;5091752;28;20132;-60
2022/08/18 13:04:35;;;;;;;16.50;5.68;;;;;;;-144.43;100.00;67396.00;5093677;28;20032;-60
2022/08/18 13:08:04;;;;;;;20.92;5.93;;;;;;;-144.43;100.00;67396.00;5094496;28;20063;-60
2022/08/18 13:11:31;;;;;;;17.65;5.70;;;;;;;-144.43;100.00;67396.00;5094684;28;20081;-59
2022/08/18 13:14:56;;;;;;;20.13;5.97;;;;;;;-144.43;100.00;67396.00;5079672;28;20114;-59
2022/08/18 13:18:22;;;;;;;20.73;5.73;;;;;;;-144.43;100.00;67396.00;5080160;28;20050;-58
2022/08/18 13:21:47;;;;;;;23.45;6.18;;;;;;;-144.43;100.00;67396.00;5094337;28;20059;-61
2022/08/18 13:25:14;;;;;;;21.48;5.50;;;;;;;-144.43;100.00;67396.00;5094167;28;20028;-61
2022/08/18 13:28:41;;;;;;;18.95;5.10;;;;;;;-144.43;100.00;67396.00;5094177;28;20048;-61
2022/08/18 13:32:08;;;;;;;24.52;5.68;;;;;;;-144.43;100.00;67396.00;5086319;28;20040;-61
2022/08/18 13:35:33;;;;;;;20.70;5.75;;;;;;;-144.43;100.00;67396.00;5081422;28;20070;-60
2022/08/18 13:39:00;;;;;;;19.23;5.70;;;;;;;-144.43;100.00;67396.00;5091169;28;20040;-61
2022/08/18 13:42:27;;;;;;;21.73;5.70;;;;;;;-144.43;100.00;67396.00;5087368;28;20585;-59
2022/08/18 13:45:56;;;;;;;23.50;5.40;;;;;;;-144.43;100.00;67396.00;5093553;28;20089;-59
2022/08/18 13:49:23;;;;;;;24.52;5.45;;;;;;;-144.43;100.00;67396.00;5093773;28;20036;-57
2022/08/18 13:52:51;;;;;;;24.30;6.30;;;;;;;-144.43;100.00;67396.00;5071987;28;20090;-60
2022/08/18 13:56:18;;;;;;;21.65;6.05;;;;;;;-144.43;100.00;67396.00;5090035;28;20032;-60
2022/08/18 13:59:43;;;;;;;24.90;5.70;;;;;;;-144.43;100.00;67396.00;5080344;28;20506;-59
2022/08/18 14:03:09;;;;;;;32.75;6.03;;;;;;;-144.43;100.00;67396.00;5081157;28;20049;-59
2022/08/18 14:06:35;;;;;;;23.63;5.78;;;;;;;-144.43;100.00;67396.00;5093409;28;20039;-57
2022/08/18 14:10:00;;;;;;;23.47;6.30;;;;;;;-144.43;100.00;67396.00;5076683;28;20033;-58
2022/08/18 14:13:26;;;;;;;22.00;5.20;;;;;;;-144.43;100.00;67396.00;5079095;28;20067;-59
2022/08/18 14:16:52;;;;;;;25.23;5.50;;;;;;;-144.43;100.00;67396.00;5092769;28;20261;-56
2022/08/18 14:27:46;;;;;;;27.63;5.78;;;;;;;-144.43;100.00;67396.00;5091837;28;20038;-58
2022/08/18 14:31:12;;;;;;;23.97;5.30;;;;;;;-144.43;100.00;67396.00;5087413;28;20032;-57
2022/08/18 14:34:37;;;;;;;28.33;5.28;;;;;;;-144.43;100.00;67396.00;5085341;28;20039;-59
2022/08/18 14:38:03;;;;;;;24.57;5.43;;;;;;;-144.43;100.00;67396.00;5092206;28;20032;-60
2022/08/18 14:41:37;;;;;;;22.75;6.03;;;;;;;-144.43;100.00;67396.00;5093120;28;20360;-58
2022/08/18 14:45:03;;;;;;;27.45;6.07;;;;;;;-144.43;100.00;67396.00;5092946;28;20429;-58
2022/08/18 14:48:28;;;;;;;;;;;;;;;-144.43;100.00;67396.00;5103524;28;20032;-60
2022/08/18 14:51:54;;;;;;;26.20;7.05;;;;;;;-144.43;100.00;67396.00;5092349;28;19916;-57
2022/08/18 14:55:19;;;;;;;;;;;;;;;-144.43;100.00;67396.00;5091290;28;20078;-60
2022/08/18 14:58:45;;;;;;;29.05;6.50;;;;;;;-144.43;100.00;67396.00;5083691;28;19916;-61
2022/08/18 15:02:11;;;;;;;26.63;6.55;;;;;;;-144.43;100.00;67396.00;5096320;28;20035;-59
2022/08/18 15:05:37;;;;;;;26.58;6.30;;;;;;;-144.43;100.00;67396.00;5074016;28;20462;-59
2022/08/18 15:09:03;;;;;;;24.42;5.93;;;;;;;-144.43;100.00;67396.00;5087362;28;20475;-59
2022/08/18 15:12:28;;;;;;;28.85;6.18;;;;;;;-144.43;100.00;67396.00;5087130;28;20024;-58
2022/08/18 15:15:54;;;;;;;25.65;6.53;;;;;;;-144.43;100.00;67396.00;5083222;28;20517;-60
2022/08/18 15:19:21;;;;;;;25.00;6.18;;;;;;;-144.43;100.00;67396.00;5082898;28;20095;-59
2022/08/18 15:26:31;;;;;;;20.33;5.20;;;;;;;-144.43;100.00;67396.00;5086868;28;20051;-58
2022/08/18 15:29:56;;;;;;;22.98;5.45;;;;;;;-144.43;100.00;67396.00;5085101;28;20029;-59
2022/08/18 15:33:23;;;;;;;23.48;5.47;;;;;;;-144.43;100.00;67396.00;5084102;28;20035;-61
2022/08/18 15:36:48;;;;;;;23.10;5.78;;;;;;;-144.43;100.00;67396.00;5082660;28;20032;-59
2022/08/18 15:40:19;;;;;;;21.33;5.82;;;;;;;-144.43;100.00;67396.00;5098276;28;20367;-58
2022/08/18 15:43:55;;;;;;;18.58;5.60;;;;;;;-144.43;100.00;67396.00;5095468;28;20036;-59
2022/08/18 15:47:21;;;;;;;18.63;5.55;;;;;;;-144.43;100.00;67396.00;5096022;28;20044;-59
2022/08/18 15:50:47;;;;;;;17.52;4.93;;;;;;;-144.43;100.00;67396.00;5095875;28;20036;-60
2022/08/18 15:54:17;;;;;;;20.58;5.50;;;;;;;-144.43;100.00;67396.00;5095700;28;20115;-59
2022/08/18 15:57:43;;;;;;;19.85;5.22;;;;;;;-144.43;100.00;67396.00;5095834;28;20483;-59
2022/08/18 16:01:10;;;;;;;;;;;;;;;-144.43;100.00;67396.00;5087070;28;20036;-59
2022/08/18 16:04:37;;;;;;;18.63;7.15;;;;;;;-144.43;100.00;67396.00;5081876;28;19916;-59
2022/08/18 16:08:04;;;;;;;18.90;5.20;;;;;;;-144.43;100.00;67396.00;5081224;28;20482;-59
2022/08/18 16:11:30;;;;;;;19.05;5.15;;;;;;;-144.43;100.00;67396.00;5089518;28;20024;-59
2022/08/18 16:14:56;;;;;;;19.15;4.97;;;;;;;-144.43;100.00;67396.00;5094469;28;20043;-60
2022/08/18 16:18:21;;;;;;;25.90;5.97;;;;;;;-144.43;100.00;67396.00;5096079;28;20389;-60
2022/08/18 16:21:49;;;;;;;13.88;4.65;;;;;;;-144.43;100.00;67396.00;5078174;28;20119;-59
2022/08/18 16:25:15;;;;;;;15.45;4.72;;;;;;;-144.43;100.00;67396.00;5087626;28;20028;-60
2022/08/18 16:28:42;;;;;;;24.80;6.75;;;;;;;-144.43;100.00;67396.00;5087104;28;20425;-59
2022/08/18 16:32:08;;;;;;;21.45;5.55;;;;;;;-144.43;100.00;67396.00;5095093;28;20039;-59